Terminal Aerodrome Forecast
Issued by NWS

Home | Current Version | Previous Version | Text Only | Print | Product List | Glossary On
Versions: 1 2 3 4 5 6 7 8 9 10 11 12 13 14 15
393
FTUS42 KTAE 261123
TAFDHN
TAF
KDHN 261123Z 2612/2712 12006KT 6SM BR SCT015
     FM261300 17010KT P6SM SCT040 BKN250
     FM270000 20005KT P6SM FEW030
     FM270900 00000KT 1SM BR BKN004=

USA.gov is the U.S. government's official web portal to all federal, state and local government web resources and services.